RER098 SEQM-SEGU
Flight info
| Callsign | RER098 |
|---|---|
| Flight time | 0h 35m |
| Altitude | 24000 |
| Route | TEMOX3B TEMOX TEMOX2 |
| Aircraft | B736/M-SDE2E3FGHIRWXY/LB1 |
Departure
| Time | 2026-04-25 01:49 |
|---|---|
| Airport | Mariscal Sucre International Airport (SEQM) |
Arrival
| Time | 2026-04-25 02:24 |
|---|---|
| Airport | José Joaquín de Olmedo International Airport (SEGU) |
| Time | Latitude | Longitude | Altitude | Speed | Heading |
|---|---|---|---|---|---|
| 2026-04-25 01:09 | -0.12316 | -78.35931 | 7813 ft | 0 kts | 266° |
| 2026-04-25 01:31 | -0.12314 | -78.35906 | 7838 ft | 4 kts | 265° |
| 2026-04-25 01:32 | -0.12311 | -78.35879 | 7837 ft | 4 kts | 259° |
| 2026-04-25 01:32 | -0.12303 | -78.35854 | 7839 ft | 4 kts | 231° |
| 2026-04-25 01:32 | -0.12291 | -78.35846 | 7835 ft | 1 kts | 178° |
| 2026-04-25 01:36 | -0.12298 | -78.35846 | 7835 ft | 2 kts | 178° |
| 2026-04-25 01:36 | -0.12323 | -78.35845 | 7838 ft | 5 kts | 178° |
| 2026-04-25 01:36 | -0.12366 | -78.35843 | 7840 ft | 8 kts | 177° |
| 2026-04-25 01:37 | -0.12427 | -78.35840 | 7840 ft | 10 kts | 178° |
| 2026-04-25 01:37 | -0.12504 | -78.35837 | 7840 ft | 12 kts | 178° |
| 2026-04-25 01:37 | -0.12597 | -78.35833 | 7840 ft | 14 kts | 177° |
| 2026-04-25 01:37 | -0.12686 | -78.35820 | 7838 ft | 10 kts | 147° |
| 2026-04-25 01:38 | -0.12695 | -78.35758 | 7841 ft | 9 kts | 86° |
| 2026-04-25 01:38 | -0.12693 | -78.35696 | 7840 ft | 9 kts | 88° |
| 2026-04-25 01:38 | -0.12690 | -78.35631 | 7843 ft | 9 kts | 89° |
| 2026-04-25 01:38 | -0.12732 | -78.35601 | 7843 ft | 8 kts | 177° |
| 2026-04-25 01:39 | -0.12792 | -78.35598 | 7844 ft | 10 kts | 178° |
| 2026-04-25 01:39 | -0.12870 | -78.35595 | 7840 ft | 12 kts | 178° |
| 2026-04-25 01:39 | -0.12957 | -78.35592 | 7849 ft | 13 kts | 178° |
| 2026-04-25 01:39 | -0.13052 | -78.35588 | 7852 ft | 14 kts | 177° |
| 2026-04-25 01:40 | -0.13145 | -78.35584 | 7859 ft | 13 kts | 178° |
| 2026-04-25 01:40 | -0.13233 | -78.35580 | 7864 ft | 13 kts | 176° |
| 2026-04-25 01:40 | -0.13320 | -78.35576 | 7867 ft | 13 kts | 178° |
| 2026-04-25 01:40 | -0.13409 | -78.35572 | 7871 ft | 13 kts | 177° |
| 2026-04-25 01:41 | -0.13495 | -78.35568 | 7877 ft | 12 kts | 178° |
| 2026-04-25 01:41 | -0.13572 | -78.35564 | 7882 ft | 8 kts | 170° |
| 2026-04-25 01:41 | -0.13603 | -78.35535 | 7887 ft | 5 kts | 107° |
| 2026-04-25 01:41 | -0.13601 | -78.35513 | 7889 ft | 2 kts | 68° |
| 2026-04-25 01:42 | -0.13599 | -78.35510 | 7889 ft | 0 kts | 61° |
| 2026-04-25 01:46 | -0.13591 | -78.35501 | 7889 ft | 4 kts | 40° |
| 2026-04-25 01:46 | -0.13543 | -78.35473 | 7889 ft | 12 kts | 29° |
| 2026-04-25 01:46 | -0.13447 | -78.35431 | 7888 ft | 16 kts | 20° |
| 2026-04-25 01:46 | -0.13412 | -78.35404 | 7888 ft | 3 kts | 33° |
| 2026-04-25 01:47 | -0.13396 | -78.35403 | 7888 ft | 0 kts | 356° |
| 2026-04-25 01:47 | -0.13395 | -78.35403 | 7888 ft | 0 kts | 356° |
| 2026-04-25 01:48 | -0.13393 | -78.35403 | 7888 ft | 2 kts | 356° |
| 2026-04-25 01:48 | -0.13285 | -78.35408 | 7885 ft | 48 kts | 358° |
| 2026-04-25 01:49 | -0.12681 | -78.35434 | 7856 ft | 124 kts | 357° |
| 2026-04-25 01:49 | -0.11610 | -78.35474 | 7925 ft | 173 kts | 358° |
| 2026-04-25 01:49 | -0.10426 | -78.35520 | 8864 ft | 170 kts | 358° |
| 2026-04-25 01:49 | -0.09215 | -78.35565 | 9611 ft | 177 kts | 358° |
| 2026-04-25 01:50 | -0.07981 | -78.35612 | 10507 ft | 178 kts | 358° |
| 2026-04-25 01:50 | -0.06757 | -78.35833 | 11162 ft | 186 kts | 327° |
| 2026-04-25 01:50 | -0.05933 | -78.36892 | 11477 ft | 211 kts | 283° |
| 2026-04-25 01:50 | -0.05824 | -78.38419 | 11900 ft | 228 kts | 268° |
| 2026-04-25 01:51 | -0.06275 | -78.39942 | 12543 ft | 233 kts | 237° |
| 2026-04-25 01:51 | -0.07231 | -78.41272 | 13193 ft | 244 kts | 233° |
| 2026-04-25 01:51 | -0.08311 | -78.42701 | 13392 ft | 271 kts | 233° |
| 2026-04-25 01:51 | -0.09477 | -78.44249 | 13887 ft | 283 kts | 234° |
| 2026-04-25 01:52 | -0.10663 | -78.45846 | 14540 ft | 287 kts | 234° |
| 2026-04-25 01:52 | -0.12108 | -78.47223 | 15161 ft | 291 kts | 211° |
| 2026-04-25 01:52 | -0.13995 | -78.47968 | 15833 ft | 294 kts | 197° |
| 2026-04-25 01:52 | -0.15975 | -78.48518 | 16458 ft | 298 kts | 195° |
| 2026-04-25 01:53 | -0.18008 | -78.49053 | 16972 ft | 310 kts | 195° |
| 2026-04-25 01:53 | -0.20186 | -78.49622 | 17138 ft | 338 kts | 195° |
| 2026-04-25 01:53 | -0.22524 | -78.50233 | 17585 ft | 353 kts | 195° |
| 2026-04-25 01:53 | -0.24909 | -78.50912 | 18300 ft | 359 kts | 202° |
| 2026-04-25 01:54 | -0.27057 | -78.52190 | 19048 ft | 362 kts | 219° |
| 2026-04-25 01:54 | -0.28838 | -78.53922 | 19817 ft | 362 kts | 231° |
| 2026-04-25 01:54 | -0.30185 | -78.56033 | 20670 ft | 360 kts | 242° |
| 2026-04-25 01:54 | -0.31322 | -78.58260 | 21533 ft | 360 kts | 244° |
| 2026-04-25 01:55 | -0.32436 | -78.60546 | 22374 ft | 361 kts | 244° |
| 2026-04-25 01:55 | -0.33531 | -78.62809 | 23178 ft | 364 kts | 244° |
| 2026-04-25 01:55 | -0.34649 | -78.65105 | 23631 ft | 369 kts | 244° |
| 2026-04-25 01:55 | -0.35781 | -78.67406 | 23888 ft | 368 kts | 244° |
| 2026-04-25 01:56 | -0.36895 | -78.69654 | 24090 ft | 363 kts | 244° |
| 2026-04-25 01:56 | -0.38023 | -78.71915 | 24285 ft | 364 kts | 244° |
| 2026-04-25 01:56 | -0.39160 | -78.74189 | 24291 ft | 366 kts | 243° |
| 2026-04-25 01:56 | -0.40294 | -78.76455 | 24296 ft | 364 kts | 243° |
| 2026-04-25 01:57 | -0.42555 | -78.80966 | 24302 ft | 364 kts | 243° |
| 2026-04-25 01:57 | -0.43687 | -78.83227 | 24288 ft | 364 kts | 243° |
| 2026-04-25 01:57 | -0.44823 | -78.85495 | 24276 ft | 365 kts | 244° |
| 2026-04-25 01:58 | -0.45958 | -78.87760 | 24276 ft | 365 kts | 244° |
| 2026-04-25 01:58 | -0.47093 | -78.90025 | 24268 ft | 365 kts | 244° |
| 2026-04-25 01:58 | -0.48229 | -78.92291 | 24260 ft | 365 kts | 244° |
| 2026-04-25 01:58 | -0.49363 | -78.94556 | 24252 ft | 364 kts | 244° |
| 2026-04-25 01:59 | -0.50498 | -78.96821 | 24240 ft | 364 kts | 244° |
| 2026-04-25 01:59 | -0.51630 | -78.99082 | 24232 ft | 364 kts | 244° |
| 2026-04-25 01:59 | -0.52761 | -79.01341 | 24222 ft | 363 kts | 244° |
| 2026-04-25 01:59 | -0.53890 | -79.03598 | 24215 ft | 363 kts | 244° |
| 2026-04-25 02:00 | -0.55020 | -79.05851 | 24209 ft | 363 kts | 244° |
| 2026-04-25 02:00 | -0.56150 | -79.08106 | 24200 ft | 362 kts | 244° |
| 2026-04-25 02:00 | -0.57274 | -79.10348 | 24190 ft | 362 kts | 244° |
| 2026-04-25 02:00 | -0.58677 | -79.12424 | 24177 ft | 361 kts | 225° |
| 2026-04-25 02:01 | -0.60684 | -79.13905 | 24177 ft | 360 kts | 207° |
| 2026-04-25 02:01 | -0.62738 | -79.14913 | 24183 ft | 360 kts | 205° |
| 2026-04-25 02:01 | -0.64988 | -79.15946 | 24172 ft | 361 kts | 204° |
| 2026-04-25 02:01 | -0.67285 | -79.16976 | 24089 ft | 364 kts | 203° |
| 2026-04-25 02:02 | -0.69604 | -79.18015 | 23854 ft | 365 kts | 204° |
| 2026-04-25 02:02 | -0.71912 | -79.19058 | 23612 ft | 363 kts | 204° |
| 2026-04-25 02:02 | -0.74207 | -79.20106 | 23354 ft | 362 kts | 204° |
| 2026-04-25 02:02 | -0.76500 | -79.21160 | 23097 ft | 362 kts | 204° |
| 2026-04-25 02:03 | -0.78786 | -79.22216 | 22842 ft | 362 kts | 204° |
| 2026-04-25 02:03 | -0.81069 | -79.23273 | 22592 ft | 362 kts | 205° |
| 2026-04-25 02:03 | -0.83350 | -79.24331 | 22330 ft | 361 kts | 205° |
| 2026-04-25 02:03 | -0.85632 | -79.25390 | 22082 ft | 361 kts | 205° |
| 2026-04-25 02:04 | -0.87907 | -79.26446 | 21835 ft | 360 kts | 205° |
| 2026-04-25 02:04 | -0.90177 | -79.27500 | 21588 ft | 359 kts | 205° |
| 2026-04-25 02:04 | -0.92446 | -79.28553 | 21339 ft | 358 kts | 205° |
| 2026-04-25 02:04 | -0.94702 | -79.29601 | 21084 ft | 357 kts | 205° |
| 2026-04-25 02:05 | -0.96949 | -79.30644 | 20848 ft | 356 kts | 205° |
| 2026-04-25 02:05 | -0.99188 | -79.31684 | 20605 ft | 354 kts | 205° |
| 2026-04-25 02:05 | -1.01416 | -79.32719 | 20365 ft | 353 kts | 205° |
| 2026-04-25 02:05 | -1.03635 | -79.33749 | 20126 ft | 351 kts | 205° |
| 2026-04-25 02:06 | -1.05844 | -79.34774 | 19849 ft | 348 kts | 205° |
| 2026-04-25 02:06 | -1.08030 | -79.35790 | 19493 ft | 345 kts | 205° |
| 2026-04-25 02:06 | -1.10205 | -79.36799 | 19118 ft | 343 kts | 205° |
| 2026-04-25 02:06 | -1.12364 | -79.37801 | 18724 ft | 342 kts | 205° |
| 2026-04-25 02:07 | -1.14517 | -79.38801 | 18316 ft | 341 kts | 205° |
| 2026-04-25 02:07 | -1.16661 | -79.39797 | 17940 ft | 337 kts | 205° |
| 2026-04-25 02:07 | -1.18774 | -79.40778 | 17576 ft | 334 kts | 205° |
| 2026-04-25 02:07 | -1.20871 | -79.41752 | 17186 ft | 331 kts | 205° |
| 2026-04-25 02:08 | -1.22951 | -79.42718 | 16798 ft | 329 kts | 205° |
| 2026-04-25 02:08 | -1.25017 | -79.43677 | 16480 ft | 324 kts | 205° |
| 2026-04-25 02:08 | -1.27056 | -79.44624 | 16118 ft | 322 kts | 205° |
| 2026-04-25 02:08 | -1.29082 | -79.45565 | 15751 ft | 320 kts | 206° |
| 2026-04-25 02:09 | -1.31096 | -79.46504 | 15359 ft | 319 kts | 205° |
| 2026-04-25 02:09 | -1.33102 | -79.47435 | 14992 ft | 317 kts | 205° |
| 2026-04-25 02:09 | -1.35102 | -79.48363 | 14602 ft | 317 kts | 205° |
| 2026-04-25 02:09 | -1.37098 | -79.49289 | 14221 ft | 316 kts | 205° |
| 2026-04-25 02:10 | -1.39090 | -79.50214 | 13823 ft | 316 kts | 205° |
| 2026-04-25 02:10 | -1.41069 | -79.51132 | 13611 ft | 308 kts | 205° |
| 2026-04-25 02:10 | -1.42983 | -79.52023 | 13604 ft | 301 kts | 206° |
| 2026-04-25 02:10 | -1.44911 | -79.52922 | 12925 ft | 313 kts | 205° |
| 2026-04-25 02:11 | -1.46896 | -79.53842 | 12428 ft | 315 kts | 205° |
| 2026-04-25 02:11 | -1.48878 | -79.54761 | 12016 ft | 313 kts | 205° |
| 2026-04-25 02:11 | -1.50847 | -79.55675 | 11619 ft | 311 kts | 205° |
| 2026-04-25 02:11 | -1.52803 | -79.56585 | 11236 ft | 309 kts | 205° |
| 2026-04-25 02:12 | -1.54721 | -79.57477 | 10867 ft | 307 kts | 205° |
| 2026-04-25 02:12 | -1.56653 | -79.58373 | 10490 ft | 305 kts | 205° |
| 2026-04-25 02:12 | -1.58570 | -79.59264 | 10105 ft | 301 kts | 205° |
| 2026-04-25 02:12 | -1.60457 | -79.60140 | 9728 ft | 295 kts | 205° |
| 2026-04-25 02:13 | -1.62297 | -79.60996 | 9334 ft | 289 kts | 205° |
| 2026-04-25 02:13 | -1.64098 | -79.61833 | 8967 ft | 283 kts | 205° |
| 2026-04-25 02:13 | -1.65870 | -79.62657 | 8614 ft | 278 kts | 205° |
| 2026-04-25 02:13 | -1.67607 | -79.63465 | 8268 ft | 273 kts | 204° |
| 2026-04-25 02:14 | -1.69319 | -79.64261 | 7941 ft | 271 kts | 204° |
| 2026-04-25 02:14 | -1.71025 | -79.65054 | 7615 ft | 270 kts | 204° |
| 2026-04-25 02:14 | -1.72733 | -79.65848 | 7282 ft | 270 kts | 204° |
| 2026-04-25 02:14 | -1.74430 | -79.66637 | 6950 ft | 267 kts | 204° |
| 2026-04-25 02:15 | -1.76105 | -79.67415 | 6620 ft | 264 kts | 204° |
| 2026-04-25 02:15 | -1.77756 | -79.68184 | 6292 ft | 260 kts | 204° |
| 2026-04-25 02:15 | -1.79389 | -79.68943 | 5965 ft | 257 kts | 204° |
| 2026-04-25 02:15 | -1.81001 | -79.69693 | 5639 ft | 254 kts | 204° |
| 2026-04-25 02:16 | -1.82592 | -79.70433 | 5320 ft | 251 kts | 204° |
| 2026-04-25 02:16 | -1.84167 | -79.71165 | 5012 ft | 248 kts | 204° |
| 2026-04-25 02:16 | -1.85719 | -79.71888 | 4706 ft | 245 kts | 204° |
| 2026-04-25 02:16 | -1.87256 | -79.72603 | 4390 ft | 242 kts | 204° |
| 2026-04-25 02:17 | -1.88763 | -79.73303 | 4206 ft | 234 kts | 204° |
| 2026-04-25 02:17 | -1.90220 | -79.73981 | 4095 ft | 227 kts | 204° |
| 2026-04-25 02:17 | -1.91629 | -79.74636 | 3982 ft | 220 kts | 204° |
| 2026-04-25 02:17 | -1.92989 | -79.75270 | 3885 ft | 212 kts | 205° |
| 2026-04-25 02:18 | -1.94248 | -79.75951 | 3817 ft | 199 kts | 209° |
| 2026-04-25 02:18 | -1.95405 | -79.76627 | 3714 ft | 185 kts | 209° |
| 2026-04-25 02:18 | -1.96473 | -79.77251 | 3630 ft | 170 kts | 209° |
| 2026-04-25 02:18 | -1.97481 | -79.77835 | 3579 ft | 167 kts | 209° |
| 2026-04-25 02:19 | -1.98488 | -79.78418 | 3463 ft | 169 kts | 208° |
| 2026-04-25 02:19 | -1.99498 | -79.79001 | 3315 ft | 167 kts | 208° |
| 2026-04-25 02:19 | -2.00508 | -79.79584 | 3138 ft | 166 kts | 208° |
| 2026-04-25 02:19 | -2.01499 | -79.80157 | 2937 ft | 162 kts | 209° |
| 2026-04-25 02:20 | -2.02462 | -79.80713 | 2745 ft | 158 kts | 208° |
| 2026-04-25 02:20 | -2.03409 | -79.81260 | 2583 ft | 156 kts | 208° |
| 2026-04-25 02:20 | -2.04342 | -79.81798 | 2396 ft | 151 kts | 208° |
| 2026-04-25 02:20 | -2.05209 | -79.82297 | 2243 ft | 134 kts | 208° |
| 2026-04-25 02:21 | -2.05987 | -79.82744 | 2043 ft | 124 kts | 209° |
| 2026-04-25 02:21 | -2.06723 | -79.83168 | 1893 ft | 123 kts | 211° |
| 2026-04-25 02:21 | -2.07495 | -79.83612 | 1756 ft | 131 kts | 210° |
| 2026-04-25 02:21 | -2.08278 | -79.84059 | 1574 ft | 128 kts | 210° |
| 2026-04-25 02:22 | -2.09042 | -79.84494 | 1346 ft | 126 kts | 211° |
| 2026-04-25 02:22 | -2.09797 | -79.84929 | 1149 ft | 124 kts | 211° |
| 2026-04-25 02:22 | -2.10553 | -79.85374 | 1021 ft | 128 kts | 210° |
| 2026-04-25 02:22 | -2.11332 | -79.85824 | 866 ft | 129 kts | 211° |
| 2026-04-25 02:23 | -2.12098 | -79.86263 | 687 ft | 126 kts | 212° |
| 2026-04-25 02:23 | -2.12855 | -79.86700 | 523 ft | 124 kts | 211° |
| 2026-04-25 02:23 | -2.13589 | -79.87127 | 332 ft | 122 kts | 211° |
| 2026-04-25 02:23 | -2.14328 | -79.87549 | 191 ft | 123 kts | 211° |
| 2026-04-25 02:24 | -2.15059 | -79.87971 | 38 ft | 120 kts | 211° |
| 2026-04-25 02:24 | -2.15640 | -79.88307 | 29 ft | 66 kts | 210° |
| 2026-04-25 02:24 | -2.15912 | -79.88463 | 26 ft | 34 kts | 210° |
| 2026-04-25 02:24 | -2.16018 | -79.88532 | 26 ft | 10 kts | 237° |
| 2026-04-25 02:25 | -2.16002 | -79.88595 | 27 ft | 10 kts | 308° |
| 2026-04-25 02:25 | -2.15945 | -79.88592 | 27 ft | 9 kts | 32° |
| 2026-04-25 02:25 | -2.15889 | -79.88559 | 27 ft | 10 kts | 30° |
| 2026-04-25 02:25 | -2.15820 | -79.88520 | 27 ft | 13 kts | 29° |
| 2026-04-25 02:26 | -2.15733 | -79.88469 | 27 ft | 16 kts | 30° |
| 2026-04-25 02:26 | -2.15630 | -79.88410 | 27 ft | 18 kts | 31° |
| 2026-04-25 02:26 | -2.15514 | -79.88343 | 27 ft | 20 kts | 30° |
| 2026-04-25 02:26 | -2.15395 | -79.88275 | 27 ft | 19 kts | 30° |
| 2026-04-25 02:27 | -2.15313 | -79.88228 | 27 ft | 10 kts | 30° |
| 2026-04-25 02:27 | -2.15260 | -79.88230 | 27 ft | 8 kts | 311° |
| 2026-04-25 02:27 | -2.15226 | -79.88288 | 28 ft | 12 kts | 299° |
| 2026-04-25 02:27 | -2.15184 | -79.88362 | 28 ft | 9 kts | 300° |
| 2026-04-25 02:28 | -2.15148 | -79.88399 | 28 ft | 7 kts | 344° |
| 2026-04-25 02:28 | -2.15117 | -79.88431 | 28 ft | 6 kts | 299° |
| 2026-04-25 02:28 | -2.15105 | -79.88452 | 28 ft | 1 kts | 299° |
| 2026-04-25 02:28 | -2.15103 | -79.88456 | 28 ft | 0 kts | 299° |